createdAt,value
2019-04-09T00:01:28.484Z,44.20
2019-04-09T00:03:32.195Z,39.37
2019-04-09T00:05:35.890Z,45.60
2019-04-09T00:07:51.665Z,46.47
2019-04-09T00:09:45.524Z,41.53
2019-04-09T00:11:49.892Z,39.17
2019-04-09T00:13:53.744Z,43.10
2019-04-09T00:15:58.458Z,48.20
2019-04-09T00:18:02.394Z,37.57
2019-04-09T00:20:08.242Z,48.00
2019-04-09T00:22:12.477Z,51.60
2019-04-09T00:24:16.743Z,49.50
2019-04-09T00:26:20.667Z,47.47
2019-04-09T00:28:24.925Z,46.37
2019-04-09T00:30:29.126Z,47.70
2019-04-09T00:32:32.865Z,41.27
2019-04-09T00:34:36.451Z,48.90
2019-04-09T00:36:40.153Z,47.93
2019-04-09T00:38:43.964Z,42.37
2019-04-09T00:40:48.525Z,43.37
2019-04-09T00:42:52.296Z,50.00
2019-04-09T00:44:55.924Z,43.57
2019-04-09T00:46:59.765Z,43.23
2019-04-09T00:49:03.493Z,42.17
2019-04-09T00:51:08.318Z,51.83
2019-04-09T00:53:12.107Z,47.43
2019-04-09T00:55:16.802Z,44.87
2019-04-09T00:57:20.709Z,55.73
2019-04-09T00:59:24.510Z,46.10
2019-04-09T01:01:30.312Z,49.80
2019-04-09T01:03:34.517Z,53.07
2019-04-09T01:05:38.301Z,46.10
2019-04-09T01:07:41.998Z,48.50
2019-04-09T01:09:45.719Z,43.50
2019-04-09T01:11:49.956Z,54.43
2019-04-09T01:13:53.676Z,43.27
2019-04-09T01:15:58.261Z,48.13
2019-04-09T01:18:02.788Z,43.90
2019-04-09T01:20:07.325Z,49.33
2019-04-09T01:22:11.011Z,45.53
2019-04-09T01:24:25.804Z,47.20
2019-04-09T01:26:28.539Z,46.87
2019-04-09T01:28:37.206Z,43.53
2019-04-09T01:30:52.443Z,50.60
2019-04-09T01:33:16.290Z,42.30
2019-04-09T01:35:26.988Z,45.00
2019-04-09T01:37:44.981Z,50.40
2019-04-09T01:39:53.321Z,46.77
2019-04-09T01:42:02.578Z,44.13
2019-04-09T01:44:16.936Z,43.33
2019-04-09T01:46:24.861Z,42.20
2019-04-09T01:48:46.950Z,45.50
2019-04-09T01:51:08.451Z,54.40
2019-04-09T01:53:30.363Z,47.43
2019-04-09T01:55:35.730Z,43.80
2019-04-09T01:57:53.038Z,46.60
2019-04-09T02:00:13.841Z,44.20
2019-04-09T02:02:35.703Z,44.00
2019-04-09T02:04:58.284Z,45.57
2019-04-09T02:07:03.686Z,46.70
2019-04-09T02:09:15.923Z,49.43
2019-04-09T02:11:24.237Z,49.73
2019-04-09T02:13:29.631Z,51.47
2019-04-09T02:15:35.168Z,57.23
2019-04-09T02:17:40.575Z,44.30
2019-04-09T02:19:54.572Z,53.30
2019-04-09T02:22:09.598Z,45.10
2019-04-09T02:24:31.156Z,45.10
2019-04-09T02:26:37.032Z,49.63
2019-04-09T02:29:00.446Z,50.33
2019-04-09T02:31:18.031Z,55.00
2019-04-09T02:33:23.695Z,52.20
2019-04-09T02:38:03.742Z,44.73
2019-04-09T02:40:12.286Z,52.03
2019-04-09T02:42:21.048Z,43.17
2019-04-09T02:44:45.750Z,45.40
2019-04-09T02:46:53.975Z,49.30
2019-04-09T02:48:59.317Z,53.60
2019-04-09T02:51:13.968Z,47.27
2019-04-09T02:53:34.992Z,46.63
2019-04-09T02:55:40.970Z,49.67
2019-04-09T02:57:50.324Z,56.33
2019-04-09T02:59:56.854Z,62.07
2019-04-09T03:02:14.711Z,57.83
2019-04-09T03:04:20.644Z,58.17
2019-04-09T03:06:38.579Z,55.00
2019-04-09T03:08:47.884Z,65.93
2019-04-09T03:10:53.930Z,62.20
2019-04-09T03:13:05.456Z,54.10
2019-04-09T03:15:13.798Z,61.23
2019-04-09T03:17:31.465Z,57.60
2019-04-09T03:19:43.225Z,60.23
2019-04-09T03:21:48.678Z,79.27
2019-04-09T03:24:10.538Z,71.43
2019-04-09T03:26:19.792Z,76.20
2019-04-09T03:28:41.406Z,87.23
2019-04-09T03:30:53.111Z,84.10
2019-04-09T03:33:09.750Z,85.80
2019-04-09T03:35:23.899Z,84.10
2019-04-09T03:37:39.232Z,86.07
2019-04-09T03:39:57.263Z,91.37
2019-04-09T03:42:05.950Z,88.20
2019-04-09T03:44:21.431Z,108.33
2019-04-09T03:46:27.810Z,92.73
2019-04-09T03:48:50.364Z,96.90
2019-04-09T03:50:56.706Z,83.77
2019-04-09T03:53:05.863Z,106.87
2019-04-09T03:55:14.543Z,82.57
2019-04-09T03:57:19.876Z,88.37
2019-04-09T03:59:27.880Z,88.73
2019-04-09T04:01:39.256Z,81.23
2019-04-09T04:04:01.250Z,103.93
2019-04-09T04:06:07.408Z,91.53
2019-04-09T04:08:16.025Z,87.70
2019-04-09T04:10:24.151Z,93.43
2019-04-09T04:12:45.891Z,107.40
2019-04-09T04:14:51.597Z,111.03
2019-04-09T04:16:57.229Z,111.50
2019-04-09T04:19:03.079Z,100.77
2019-04-09T04:21:12.158Z,103.10
2019-04-09T04:23:20.443Z,147.10
2019-04-09T04:25:31.526Z,97.07
2019-04-09T04:27:36.822Z,88.57
2019-04-09T04:29:48.134Z,103.57
2019-04-09T04:32:00.676Z,114.80
2019-04-09T04:34:12.425Z,140.90
2019-04-09T04:36:35.077Z,127.17
2019-04-09T04:38:47.541Z,125.17
2019-04-09T04:41:00.015Z,112.83
2019-04-09T04:43:08.418Z,115.50
2019-04-09T04:45:13.905Z,122.13
2019-04-09T04:47:35.491Z,101.50
2019-04-09T04:49:43.605Z,101.57
2019-04-09T04:51:49.039Z,102.53
2019-04-09T04:53:55.156Z,101.03
2019-04-09T04:56:17.406Z,110.13
2019-04-09T04:58:46.313Z,117.37
2019-04-09T05:00:47.006Z,117.13
2019-04-09T05:03:09.002Z,108.60
2019-04-09T05:05:33.251Z,115.57
2019-04-09T05:07:43.395Z,115.13
2019-04-09T05:09:46.661Z,103.67
2019-04-09T05:12:01.364Z,125.17
2019-04-09T05:14:07.493Z,133.47
2019-04-09T05:16:29.416Z,110.53
2019-04-09T05:18:35.741Z,119.60
2019-04-09T05:20:57.667Z,100.10
2019-04-09T05:23:11.984Z,100.13
2019-04-09T05:25:20.845Z,129.53
2019-04-09T05:27:30.875Z,127.07
2019-04-09T05:29:52.738Z,107.67
2019-04-09T05:32:04.030Z,105.50
2019-04-09T05:34:28.315Z,111.67
2019-04-09T05:36:34.237Z,110.13
2019-04-09T05:38:40.237Z,101.13
2019-04-09T05:40:48.342Z,112.80
2019-04-09T05:42:53.821Z,111.93
2019-04-09T05:45:16.014Z,104.00
2019-04-09T05:47:24.615Z,118.50
2019-04-09T05:49:31.806Z,122.83
2019-04-09T05:51:41.527Z,120.87
2019-04-09T05:53:47.278Z,125.40
2019-04-09T05:55:56.049Z,126.00
2019-04-09T05:58:17.951Z,136.03
2019-04-09T06:00:23.996Z,138.23
2019-04-09T06:02:36.028Z,120.57
2019-04-09T06:04:42.351Z,145.33
2019-04-09T06:06:48.517Z,142.93
2019-04-09T06:09:06.522Z,149.77
2019-04-09T06:11:11.594Z,155.10
2019-04-09T06:13:17.521Z,130.67
2019-04-09T06:15:21.689Z,141.77
2019-04-09T06:17:26.110Z,136.10
2019-04-09T06:19:30.523Z,143.90
2019-04-09T06:21:40.527Z,125.63
2019-04-09T06:23:40.441Z,139.40
2019-04-09T06:25:44.601Z,144.67
2019-04-09T06:27:49.688Z,141.47
2019-04-09T06:29:54.185Z,145.10
2019-04-09T06:31:59.844Z,138.03
2019-04-09T06:34:18.143Z,139.00
2019-04-09T06:36:37.461Z,146.90
2019-04-09T06:39:00.599Z,160.13
2019-04-09T06:41:10.875Z,151.33
2019-04-09T06:43:23.480Z,152.03
2019-04-09T06:45:30.044Z,162.87
2019-04-09T06:47:52.992Z,146.53
2019-04-09T06:49:59.678Z,150.63
2019-04-09T06:52:09.034Z,147.40
2019-04-09T06:54:17.843Z,144.20
2019-04-09T06:56:23.604Z,145.47
2019-04-09T06:58:47.249Z,153.03
2019-04-09T07:01:01.770Z,134.43
2019-04-09T07:03:16.766Z,142.63
2019-04-09T07:05:34.837Z,143.87
2019-04-09T07:07:57.481Z,151.50
2019-04-09T07:10:20.904Z,125.93
2019-04-09T07:12:33.138Z,139.70
2019-04-09T07:14:53.305Z,132.93
2019-04-09T07:17:04.262Z,143.53
2019-04-09T07:19:27.150Z,153.67
2019-04-09T07:21:38.786Z,157.40
2019-04-09T07:24:00.509Z,146.33
2019-04-09T07:26:25.470Z,142.07
2019-04-09T07:28:34.209Z,142.47
2019-04-09T07:30:49.779Z,127.73
2019-04-09T07:33:01.807Z,142.40
2019-04-09T07:35:31.837Z,165.13
2019-04-09T07:37:34.283Z,115.90
2019-04-09T07:40:00.582Z,145.17
2019-04-09T07:42:20.416Z,113.27
2019-04-09T07:44:41.482Z,112.67
2019-04-09T07:47:06.234Z,119.50
2019-04-09T07:49:21.519Z,129.00
2019-04-09T07:51:45.881Z,125.40
2019-04-09T07:53:53.712Z,117.53
2019-04-09T07:56:03.002Z,122.73
2019-04-09T07:58:12.646Z,121.00
2019-04-09T08:00:24.720Z,120.60
2019-04-09T08:02:31.647Z,123.53
2019-04-09T08:04:44.744Z,127.07
2019-04-09T08:06:51.631Z,125.80
2019-04-09T08:08:58.398Z,123.27
2019-04-09T08:11:05.929Z,124.93
2019-04-09T08:13:23.727Z,133.10
2019-04-09T08:15:33.033Z,125.90
2019-04-09T08:17:43.171Z,135.47
2019-04-09T08:19:51.358Z,140.83
2019-04-09T08:22:12.524Z,137.80
2019-04-09T08:24:34.563Z,131.83
2019-04-09T08:26:47.037Z,156.33
2019-04-09T08:29:09.629Z,138.13
2019-04-09T08:31:18.161Z,141.73
2019-04-09T08:33:37.698Z,148.30
2019-04-09T08:36:01.877Z,133.60
2019-04-09T08:38:27.513Z,131.47
2019-04-09T08:40:47.812Z,128.63
2019-04-09T08:42:52.671Z,131.50
2019-04-09T08:44:58.746Z,129.50
2019-04-09T08:47:05.172Z,120.40
2019-04-09T08:49:28.343Z,143.03
2019-04-09T08:51:52.158Z,124.90
2019-04-09T08:53:58.341Z,132.17
2019-04-09T08:56:19.732Z,132.27
2019-04-09T08:58:41.888Z,135.60
2019-04-09T09:03:28.064Z,142.03
2019-04-09T09:05:54.720Z,125.23
2019-04-09T09:08:10.949Z,119.50
2019-04-09T09:10:26.228Z,126.57
2019-04-09T09:12:50.586Z,120.07
2019-04-09T09:15:05.772Z,111.70
2019-04-09T09:17:14.809Z,118.37
2019-04-09T09:19:20.633Z,113.03
2019-04-09T09:21:35.261Z,106.33
2019-04-09T09:23:41.893Z,113.77
2019-04-09T09:25:52.921Z,112.30
2019-04-09T09:28:07.878Z,120.37
2019-04-09T09:30:29.946Z,116.00
2019-04-09T09:32:45.897Z,108.73
2019-04-09T09:34:57.083Z,118.40
2019-04-09T09:37:03.891Z,114.37
2019-04-09T09:39:10.376Z,110.60
2019-04-09T09:41:22.514Z,100.70
2019-04-09T09:43:31.035Z,112.87
2019-04-09T09:45:42.002Z,104.27
2019-04-09T09:48:05.754Z,106.00
2019-04-09T09:50:15.858Z,110.00
2019-04-09T09:52:18.812Z,108.83
2019-04-09T09:54:28.506Z,103.73
2019-04-09T09:56:36.126Z,107.33
2019-04-09T09:58:48.290Z,102.60
2019-04-09T10:01:06.345Z,118.03
2019-04-09T10:03:06.417Z,108.83
2019-04-09T10:05:10.847Z,105.47
2019-04-09T10:07:38.711Z,95.73
2019-04-09T10:09:33.697Z,110.83
2019-04-09T10:11:56.906Z,100.67
2019-04-09T10:14:13.995Z,107.73
2019-04-09T10:16:28.872Z,102.13
2019-04-09T10:18:57.180Z,109.37
2019-04-09T10:20:51.944Z,110.93
2019-04-09T10:23:15.677Z,106.70
2019-04-09T10:25:39.883Z,114.10
2019-04-09T10:27:48.508Z,99.07
2019-04-09T10:30:12.104Z,100.47
2019-04-09T10:32:31.000Z,107.50
2019-04-09T10:34:37.986Z,106.83
2019-04-09T10:36:52.743Z,104.00
2019-04-09T10:39:01.570Z,107.97
2019-04-09T10:41:20.885Z,96.17
2019-04-09T10:43:41.959Z,106.70
2019-04-09T10:45:59.640Z,93.50
2019-04-09T10:48:14.000Z,95.77
2019-04-09T10:50:33.133Z,95.00
2019-04-09T10:52:54.946Z,96.43
2019-04-09T10:54:59.524Z,95.30
2019-04-09T10:57:11.677Z,103.30
2019-04-09T10:59:17.787Z,96.10
2019-04-09T11:01:33.243Z,96.63
2019-04-09T11:03:38.154Z,97.27
2019-04-09T11:06:02.512Z,96.07
2019-04-09T11:08:09.446Z,97.17
2019-04-09T11:10:31.006Z,89.80
2019-04-09T11:12:35.185Z,92.63
2019-04-09T11:15:00.919Z,91.97
2019-04-09T11:17:19.599Z,100.37
2019-04-09T11:19:41.453Z,87.67
2019-04-09T11:21:54.826Z,100.80
2019-04-09T11:24:09.408Z,90.70
2019-04-09T11:26:34.453Z,88.47
2019-04-09T11:28:43.800Z,91.90
2019-04-09T11:30:52.333Z,88.73
2019-04-09T11:32:58.235Z,87.40
2019-04-09T11:35:19.905Z,92.97
2019-04-09T11:37:39.980Z,90.57
2019-04-09T11:39:48.543Z,93.53
2019-04-09T11:42:11.558Z,96.97
2019-04-09T11:44:17.288Z,89.93
2019-04-09T11:46:26.313Z,87.37
2019-04-09T11:48:36.000Z,88.37
2019-04-09T11:50:42.427Z,91.50
2019-04-09T11:53:04.649Z,90.43
2019-04-09T11:55:22.997Z,81.33
2019-04-09T11:57:37.984Z,76.37
2019-04-09T12:00:01.628Z,81.60
2019-04-09T12:02:14.470Z,74.37
2019-04-09T12:04:20.104Z,75.40
2019-04-09T12:06:41.876Z,70.70
2019-04-09T12:08:57.194Z,68.37
2019-04-09T12:11:09.099Z,69.77
2019-04-09T12:13:20.951Z,63.00
2019-04-09T12:15:38.858Z,56.63
2019-04-09T12:18:01.801Z,66.27
2019-04-09T12:20:15.813Z,65.43
2019-04-09T12:22:41.774Z,65.90
2019-04-09T12:25:04.008Z,56.57
2019-04-09T12:27:10.234Z,55.43
2019-04-09T12:29:32.977Z,56.23
2019-04-09T12:31:50.640Z,50.03
2019-04-09T12:34:13.741Z,51.63
2019-04-09T12:36:29.021Z,58.50
2019-04-09T12:38:41.343Z,53.87
2019-04-09T12:40:49.971Z,54.33
2019-04-09T12:42:58.844Z,55.00
2019-04-09T12:45:10.745Z,49.13
2019-04-09T12:47:22.672Z,45.87
2019-04-09T12:49:41.899Z,48.87
2019-04-09T12:52:03.842Z,48.70
2019-04-09T12:54:10.436Z,48.33
2019-04-09T12:56:28.979Z,42.60
2019-04-09T12:58:34.713Z,42.50
2019-04-09T13:00:40.754Z,37.80
2019-04-09T13:02:58.384Z,44.43
2019-04-09T13:05:07.745Z,40.73
2019-04-09T13:07:16.896Z,44.90
2019-04-09T13:09:30.672Z,53.40
2019-04-09T13:11:48.763Z,39.50
2019-04-09T13:14:03.991Z,39.40
2019-04-09T13:16:15.481Z,43.90
2019-04-09T13:18:24.066Z,34.67
2019-04-09T13:20:30.419Z,39.53
2019-04-09T13:22:46.245Z,36.73
2019-04-09T13:25:01.057Z,31.40
2019-04-09T13:27:18.689Z,32.60
2019-04-09T13:29:24.945Z,34.40
2019-04-09T13:31:47.134Z,32.60
2019-04-09T13:33:55.297Z,32.03
2019-04-09T13:36:06.290Z,35.10
2019-04-09T13:38:29.093Z,33.50
2019-04-09T13:40:47.359Z,29.30
2019-04-09T13:43:05.018Z,36.40
2019-04-09T13:45:11.531Z,33.83
2019-04-09T13:47:23.590Z,32.27
2019-04-09T13:49:46.395Z,37.83
2019-04-09T13:51:54.874Z,36.50
2019-04-09T13:53:59.450Z,30.67
2019-04-09T13:56:04.956Z,29.67
2019-04-09T13:58:08.673Z,29.50
2019-04-09T14:00:15.305Z,34.27
2019-04-09T14:02:19.139Z,29.30
2019-04-09T14:04:43.863Z,34.37
2019-04-09T14:06:48.130Z,33.40
2019-04-09T14:08:53.124Z,34.43
2019-04-09T14:10:59.616Z,42.50
2019-04-09T14:13:03.558Z,43.73
2019-04-09T14:15:09.951Z,44.47
2019-04-09T14:17:13.931Z,46.57
2019-04-09T14:19:17.840Z,40.83
2019-04-09T14:21:22.669Z,45.50
2019-04-09T14:23:26.366Z,40.47
2019-04-09T14:25:30.261Z,42.80
2019-04-09T14:27:36.895Z,43.43
2019-04-09T14:29:40.659Z,42.17
2019-04-09T14:31:44.669Z,44.00
2019-04-09T14:33:49.438Z,42.83
2019-04-09T14:35:54.033Z,51.70
2019-04-09T14:37:57.912Z,44.43
2019-04-09T14:40:01.828Z,47.57
2019-04-09T14:42:06.290Z,47.83
2019-04-09T14:44:10.052Z,46.43
2019-04-09T14:46:13.850Z,40.63
2019-04-09T14:48:17.600Z,48.67
2019-04-09T14:50:21.984Z,39.03
2019-04-09T14:52:26.701Z,44.80
2019-04-09T14:54:30.532Z,43.93
2019-04-09T14:56:34.297Z,40.87
2019-04-09T14:58:38.153Z,34.27
2019-04-09T15:00:43.833Z,39.83
2019-04-09T15:02:47.310Z,37.97
2019-04-09T15:04:51.105Z,37.30
2019-04-09T15:06:54.890Z,43.13
2019-04-09T15:08:58.667Z,42.30
2019-04-09T15:11:03.035Z,40.77
2019-04-09T15:13:07.224Z,35.43
2019-04-09T15:15:11.544Z,33.90
2019-04-09T15:17:16.350Z,45.80
2019-04-09T15:19:21.271Z,39.70
2019-04-09T15:21:33.271Z,40.53
2019-04-09T15:23:37.046Z,37.77
2019-04-09T15:25:42.225Z,48.87
2019-04-09T15:27:46.470Z,51.47
2019-04-09T15:29:50.335Z,56.03
2019-04-09T15:31:54.284Z,52.90
2019-04-09T15:33:58.037Z,53.83
2019-04-09T15:36:02.154Z,64.67
2019-04-09T15:38:08.927Z,56.00
2019-04-09T15:40:13.427Z,53.37
2019-04-09T15:42:17.432Z,57.17
2019-04-09T15:44:23.699Z,62.37
2019-04-09T15:46:26.995Z,57.63
2019-04-09T15:48:30.774Z,55.27
2019-04-09T15:50:35.831Z,63.20
2019-04-09T15:52:40.737Z,73.10
2019-04-09T15:54:45.917Z,64.93
2019-04-09T15:56:50.794Z,69.30
2019-04-09T15:58:54.755Z,52.20
2019-04-09T16:00:58.512Z,59.83
2019-04-09T16:03:13.351Z,55.77
2019-04-09T16:05:08.763Z,60.50
2019-04-09T16:07:13.399Z,50.40
2019-04-09T16:09:19.056Z,51.23
2019-04-09T16:11:22.860Z,61.00
2019-04-09T16:13:31.490Z,57.47
2019-04-09T16:15:35.414Z,63.23
2019-04-09T16:17:59.876Z,53.67
2019-04-09T16:19:59.926Z,52.07
2019-04-09T16:22:03.864Z,52.13
2019-04-09T16:24:07.710Z,58.47
2019-04-09T16:26:12.509Z,50.23
2019-04-09T16:28:17.319Z,53.93
2019-04-09T16:30:21.564Z,45.23
2019-04-09T16:32:26.160Z,55.77
2019-04-09T16:34:31.092Z,51.87
2019-04-09T16:36:34.792Z,47.33
2019-04-09T16:38:39.587Z,47.27
2019-04-09T16:40:45.534Z,48.27
2019-04-09T16:42:50.204Z,51.83
2019-04-09T16:45:00.646Z,49.93
2019-04-09T16:46:59.688Z,46.27
2019-04-09T16:49:04.773Z,44.63
2019-04-09T16:51:11.411Z,43.90
2019-04-09T16:53:17.281Z,46.13
2019-04-09T16:55:22.161Z,45.07
2019-04-09T16:57:27.746Z,45.83
2019-04-09T16:59:32.859Z,48.80
2019-04-09T17:01:38.063Z,44.27
2019-04-09T17:03:46.831Z,39.80
2019-04-09T17:05:48.550Z,48.57
2019-04-09T17:07:52.630Z,43.70
2019-04-09T17:09:58.146Z,45.60
2019-04-09T17:12:03.007Z,52.87
2019-04-09T17:14:07.079Z,44.63
2019-04-09T17:16:11.818Z,47.77
2019-04-09T17:18:17.199Z,54.33
2019-04-09T17:20:21.851Z,56.30
2019-04-09T17:24:56.611Z,50.40
2019-04-09T17:27:02.388Z,46.30
2019-04-09T17:29:06.280Z,47.37
2019-04-09T17:31:10.281Z,52.70
2019-04-09T17:33:14.725Z,51.00
2019-04-09T17:35:20.899Z,54.77
2019-04-09T17:37:25.421Z,51.00
2019-04-09T17:39:30.296Z,48.63
2019-04-09T17:41:34.404Z,48.40
2019-04-09T17:43:38.355Z,52.40
2019-04-09T17:45:43.722Z,48.47
2019-04-09T17:47:47.654Z,55.50
2019-04-09T17:49:51.658Z,54.80
2019-04-09T17:51:55.548Z,55.70
2019-04-09T17:53:59.529Z,47.90
2019-04-09T17:56:03.574Z,56.20
2019-04-09T17:58:08.750Z,52.10
2019-04-09T18:00:15.986Z,44.10
2019-04-09T18:02:21.103Z,50.77
2019-04-09T18:04:37.060Z,58.97
2019-04-09T18:06:32.370Z,46.13
2019-04-09T18:08:36.816Z,48.33
2019-04-09T18:10:41.263Z,44.17
2019-04-09T18:12:45.258Z,47.40
2019-04-09T18:14:50.000Z,48.67
2019-04-09T18:16:55.272Z,42.63
2019-04-09T18:18:58.973Z,42.93
2019-04-09T18:21:02.974Z,43.50
2019-04-09T18:23:07.656Z,42.83
2019-04-09T18:25:11.767Z,43.97
2019-04-09T18:27:15.489Z,46.43
2019-04-09T18:29:19.508Z,47.50
2019-04-09T18:31:30.833Z,43.10
2019-04-09T18:33:29.986Z,55.23
2019-04-09T18:35:33.984Z,50.73
2019-04-09T18:37:37.909Z,53.30
2019-04-09T18:39:41.708Z,45.80
2019-04-09T18:41:46.355Z,40.03
2019-04-09T18:43:50.063Z,47.83
2019-04-09T18:45:53.891Z,44.93
2019-04-09T18:47:57.832Z,45.20
2019-04-09T18:50:02.369Z,49.17
2019-04-09T18:52:06.559Z,41.07
2019-04-09T18:54:11.456Z,41.87
2019-04-09T18:56:15.456Z,43.87
2019-04-09T18:58:20.928Z,44.23
2019-04-09T19:00:36.075Z,51.70
2019-04-09T19:02:41.426Z,47.73
2019-04-09T19:04:46.573Z,54.13
2019-04-09T19:06:50.518Z,54.60
2019-04-09T19:08:55.466Z,51.27
2019-04-09T19:10:59.403Z,73.40
2019-04-09T19:13:03.213Z,61.50
2019-04-09T19:15:07.188Z,50.87
2019-04-09T19:17:11.007Z,54.00
2019-04-09T19:19:14.782Z,57.83
2019-04-09T19:21:20.652Z,52.40
2019-04-09T19:23:24.430Z,55.10
2019-04-09T19:25:29.419Z,58.23
2019-04-09T19:27:33.782Z,48.37
2019-04-09T19:29:37.779Z,49.93
2019-04-09T19:31:41.850Z,53.67
2019-04-09T19:33:45.995Z,52.33
2019-04-09T19:35:50.013Z,53.97
2019-04-09T19:37:55.067Z,53.00
2019-04-09T19:40:16.155Z,52.40
2019-04-09T19:42:20.703Z,54.30
2019-04-09T19:44:25.406Z,51.70
2019-04-09T19:46:29.233Z,50.80
2019-04-09T19:48:33.148Z,50.50
2019-04-09T19:50:37.923Z,49.03
2019-04-09T19:52:41.937Z,46.80
2019-04-09T19:54:45.650Z,47.63
2019-04-09T19:56:49.430Z,59.10
2019-04-09T19:58:55.620Z,48.57
2019-04-09T20:00:58.688Z,56.23
2019-04-09T20:03:03.226Z,46.30
2019-04-09T20:05:08.266Z,42.60
2019-04-09T20:07:12.239Z,45.60
2019-04-09T20:09:17.906Z,52.40
2019-04-09T20:11:21.867Z,48.30
2019-04-09T20:13:25.947Z,49.13
2019-04-09T20:15:31.061Z,51.47
2019-04-09T20:17:35.271Z,57.43
2019-04-09T20:19:39.493Z,49.80
2019-04-09T20:21:43.221Z,56.83
2019-04-09T20:23:46.951Z,57.03
2019-04-09T20:25:51.476Z,53.00
2019-04-09T20:27:55.339Z,54.27
2019-04-09T20:29:59.455Z,53.60
2019-04-09T20:32:03.315Z,57.80
2019-04-09T20:34:07.938Z,58.93
2019-04-09T20:36:11.977Z,57.67
2019-04-09T20:38:16.536Z,57.63
2019-04-09T20:40:21.638Z,60.63
2019-04-09T20:42:26.689Z,56.37
2019-04-09T20:44:30.693Z,57.60
2019-04-09T20:46:35.950Z,51.73
2019-04-09T20:48:39.866Z,55.83
2019-04-09T20:50:44.574Z,58.43
2019-04-09T20:52:48.294Z,53.27
2019-04-09T20:55:07.069Z,57.50
2019-04-09T20:57:11.829Z,61.43
2019-04-09T20:59:36.794Z,53.63
2019-04-09T21:01:33.344Z,55.97
2019-04-09T21:03:57.718Z,60.70
2019-04-09T21:06:00.279Z,57.67
2019-04-09T21:08:00.580Z,58.53
2019-04-09T21:10:06.266Z,55.30
2019-04-09T21:12:10.820Z,55.47
2019-04-09T21:14:16.006Z,52.33
2019-04-09T21:16:20.417Z,55.63
2019-04-09T21:18:25.060Z,66.37
2019-04-09T21:20:28.890Z,60.40
2019-04-09T21:22:34.625Z,54.90
2019-04-09T21:24:39.518Z,59.30
2019-04-09T21:26:44.871Z,57.97
2019-04-09T21:28:49.924Z,64.13
2019-04-09T21:30:54.597Z,67.30
2019-04-09T21:32:59.215Z,63.90
2019-04-09T21:35:03.365Z,64.87
2019-04-09T21:37:08.066Z,65.77
2019-04-09T21:39:11.898Z,68.57
2019-04-09T21:41:16.464Z,64.93
2019-04-09T21:43:20.419Z,57.93
2019-04-09T21:45:24.164Z,60.30
2019-04-09T21:47:28.218Z,57.80
2019-04-09T21:49:32.227Z,61.23
2019-04-09T21:51:42.489Z,61.57
2019-04-09T21:53:46.281Z,59.33
2019-04-09T21:55:50.944Z,58.43
2019-04-09T21:57:55.881Z,52.50
2019-04-09T21:59:59.919Z,53.30
2019-04-09T22:02:05.090Z,47.93
2019-04-09T22:04:09.403Z,47.03
2019-04-09T22:06:23.328Z,46.97
2019-04-09T22:08:19.479Z,49.87
2019-04-09T22:10:23.286Z,50.50
2019-04-09T22:12:27.408Z,48.13
2019-04-09T22:14:31.519Z,48.00
2019-04-09T22:16:35.259Z,51.30
2019-04-09T22:18:39.637Z,48.97
2019-04-09T22:20:43.527Z,47.77
2019-04-09T22:22:48.298Z,52.97
2019-04-09T22:24:52.164Z,56.77
2019-04-09T22:26:58.161Z,54.07
2019-04-09T22:29:03.037Z,54.37
2019-04-09T22:31:07.512Z,49.97
2019-04-09T22:33:13.947Z,57.33
2019-04-09T22:35:17.146Z,51.30
2019-04-09T22:37:21.946Z,58.03
2019-04-09T22:39:26.741Z,58.50
2019-04-09T22:41:31.171Z,56.70
2019-04-09T22:43:35.040Z,61.33
2019-04-09T22:45:39.773Z,61.53
2019-04-09T22:47:43.863Z,58.57
2019-04-09T22:49:49.007Z,63.70
2019-04-09T22:51:53.119Z,61.40
2019-04-09T22:53:57.010Z,65.20
2019-04-09T22:56:00.713Z,60.80
2019-04-09T22:58:04.505Z,64.10
2019-04-09T23:00:26.916Z,63.67
2019-04-09T23:02:51.044Z,66.97
2019-04-09T23:05:02.756Z,62.97
2019-04-09T23:07:26.269Z,62.13
2019-04-09T23:09:48.366Z,62.93
2019-04-09T23:12:00.020Z,64.80
2019-04-09T23:14:04.062Z,64.90
2019-04-09T23:16:08.832Z,62.20
2019-04-09T23:18:26.609Z,71.77
2019-04-09T23:20:30.604Z,66.97
2019-04-09T23:22:35.335Z,66.80
2019-04-09T23:24:39.968Z,72.00
2019-04-09T23:26:43.996Z,73.07
2019-04-09T23:28:49.716Z,70.73
2019-04-09T23:30:54.446Z,72.67
2019-04-09T23:32:58.425Z,78.13
2019-04-09T23:35:03.112Z,68.13
2019-04-09T23:37:08.189Z,78.60
2019-04-09T23:39:12.184Z,72.47
2019-04-09T23:41:15.815Z,78.40
2019-04-09T23:43:19.624Z,76.17
2019-04-09T23:45:24.231Z,73.73
2019-04-09T23:47:28.945Z,71.97
2019-04-09T23:49:32.891Z,87.90
2019-04-09T23:51:36.528Z,114.73
2019-04-09T23:53:59.615Z,114.77
2019-04-09T23:56:03.483Z,113.07
2019-04-09T23:58:09.131Z,125.73
